Time;durP1;ratioP1;P1;durP2;ratioP2;P2;SDS_P1;SDS_P2;PMS_P1;PMS_P2;Temp;Humidity;BMP_temperature;BMP_pressure;BME280_temperature;BME280_humidity;BME280_pressure;Samples;Min_cycle;Max_cycle;Signal;HPM_P1;HPM_P2
2024/01/26 00:02:09;;;;;;;0.00;0.00;;;;;;;10.94;100.00;100586.72;5042863;28;20039;-75
2024/01/26 00:04:37;;;;;;;0.00;0.00;;;;;;;10.99;100.00;100564.84;5066595;28;20040;-77
2024/01/26 00:07:05;;;;;;;0.00;0.00;;;;;;;10.83;100.00;100543.97;5045205;28;20119;-76
2024/01/26 00:09:31;;;;;;;0.00;0.00;;;;;;;10.98;100.00;100555.00;5042150;28;20036;-75
2024/01/26 00:11:57;;;;;;;0.00;0.00;;;;;;;11.09;100.00;100590.63;5048286;28;20035;-75
2024/01/26 00:14:22;;;;;;;0.00;0.00;;;;;;;11.03;100.00;100578.00;5036598;28;20797;-74
2024/01/26 00:16:48;;;;;;;0.00;0.00;;;;;;;11.03;100.00;100578.00;5077097;28;20028;-77
2024/01/26 00:19:13;;;;;;;0.00;0.00;;;;;;;11.10;100.00;100581.34;5081846;28;20024;-74
2024/01/26 00:21:41;;;;;;;0.00;0.00;;;;;;;11.04;100.00;100571.44;5050658;28;20060;-76
2024/01/26 00:24:07;;;;;;;0.00;0.00;;;;;;;11.06;100.00;100564.59;5067870;28;20139;-74
2024/01/26 00:26:32;;;;;;;0.10;0.10;;;;;;;11.01;100.00;100567.34;5063481;28;20470;-74
2024/01/26 00:28:57;;;;;;;0.00;0.00;;;;;;;10.96;100.00;100548.94;5049646;28;20032;-75
2024/01/26 00:31:25;;;;;;;0.00;0.00;;;;;;;11.04;100.00;100571.44;5040643;28;20390;-77
2024/01/26 00:33:51;;;;;;;0.00;0.00;;;;;;;10.90;100.00;100532.78;5056456;28;20424;-74
2024/01/26 00:36:16;;;;;;;0.00;0.00;;;;;;;11.01;100.00;100561.84;5065920;28;20033;-75
2024/01/26 00:38:42;;;;;;;0.08;0.08;;;;;;;11.07;100.00;100555.31;5055189;28;20039;-76
2024/01/26 00:41:07;;;;;;;0.00;0.00;;;;;;;11.07;100.00;100581.84;5076802;28;20028;-72
2024/01/26 00:43:35;;;;;;;0.00;0.00;;;;;;;10.95;100.00;100530.06;5073578;28;20466;-75
2024/01/26 00:46:03;;;;;;;0.10;0.10;;;;;;;10.95;100.00;100530.91;5069657;28;20463;-74
2024/01/26 00:48:29;;;;;;;0.10;0.10;;;;;;;11.08;100.00;100540.56;5056893;28;20062;-74
2024/01/26 00:50:55;;;;;;;0.00;0.00;;;;;;;11.15;100.00;100548.50;5068237;28;20021;-75
2024/01/26 00:53:22;;;;;;;0.10;0.10;;;;;;;11.06;100.00;100550.09;5072223;28;20032;-75
2024/01/26 00:55:48;;;;;;;0.00;0.00;;;;;;;11.09;100.00;100522.22;5075326;28;20028;-74
2024/01/26 00:58:14;;;;;;;0.00;0.00;;;;;;;11.08;100.00;100534.22;5065327;28;20029;-74
2024/01/26 01:00:40;;;;;;;0.00;0.00;;;;;;;11.02;100.00;100519.69;5066560;28;20025;-77
2024/01/26 01:03:12;;;;;;;0.00;0.00;;;;;;;11.03;100.00;100531.50;5071858;28;20037;-77
2024/01/26 01:05:42;;;;;;;0.00;0.00;;;;;;;11.00;100.00;100533.66;5060863;28;20037;-78
2024/01/26 01:08:18;;;;;;;0.00;0.00;;;;;;;10.96;100.00;100524.31;5057114;28;20080;-75
2024/01/26 01:14:19;;;;;;;0.00;0.00;;;;;;;10.96;100.00;100520.78;5003655;28;20034;-76
2024/01/26 01:16:50;;;;;;;0.00;0.00;;;;;;;10.88;100.00;100556.84;5059351;28;20124;-77
2024/01/26 01:19:15;;;;;;;0.00;0.00;;;;;;;11.05;100.00;100545.72;5056987;28;20025;-77
2024/01/26 01:21:47;;;;;;;0.00;0.00;;;;;;;11.08;100.00;100547.91;5032466;28;20041;-76
2024/01/26 01:24:13;;;;;;;0.00;0.00;;;;;;;11.08;100.00;100569.81;5023765;28;20045;-78
2024/01/26 01:26:38;;;;;;;0.10;0.10;;;;;;;11.09;100.00;100547.66;5017847;28;20059;-77
2024/01/26 01:29:04;;;;;;;0.00;0.00;;;;;;;11.07;100.00;100590.88;5022264;28;20029;-76
2024/01/26 01:31:29;;;;;;;0.00;0.00;;;;;;;11.11;100.00;100545.50;5024667;28;20120;-77
2024/01/26 01:33:56;;;;;;;0.00;0.00;;;;;;;11.08;100.00;100535.06;5010799;28;20026;-77
2024/01/26 01:36:21;;;;;;;0.00;0.00;;;;;;;11.12;100.00;100524.41;5033389;28;20692;-76
2024/01/26 01:38:47;;;;;;;0.00;0.00;;;;;;;11.16;100.00;100541.94;5054709;28;20016;-78
2024/01/26 01:41:12;;;;;;;0.00;0.00;;;;;;;11.12;100.00;100524.41;5057697;28;20037;-77
2024/01/26 01:43:38;;;;;;;0.00;0.00;;;;;;;11.17;100.00;100549.06;5050722;28;20032;-78
2024/01/26 01:46:03;;;;;;;0.03;0.03;;;;;;;11.16;100.00;100542.75;5033402;28;20039;-78
2024/01/26 01:48:32;;;;;;;0.00;0.00;;;;;;;11.18;100.00;100523.31;5047834;28;20024;-77
2024/01/26 01:50:57;;;;;;;0.00;0.00;;;;;;;11.17;100.00;100549.88;5055930;28;20386;-78
2024/01/26 01:53:24;;;;;;;0.00;0.00;;;;;;;11.05;100.00;100529.28;5054465;28;20069;-79
2024/01/26 01:55:51;;;;;;;0.00;0.00;;;;;;;11.16;100.00;100531.00;5065860;28;20095;-78
2024/01/26 01:58:18;;;;;;;0.00;0.00;;;;;;;11.20;100.00;100547.69;5053473;28;20044;-78
2024/01/26 02:00:46;;;;;;;0.00;0.00;;;;;;;11.23;100.00;100553.47;5049698;28;20665;-78
2024/01/26 02:03:14;;;;;;;0.00;0.00;;;;;;;11.22;100.00;100551.81;5068783;28;20385;-78
2024/01/26 02:05:39;;;;;;;0.00;0.00;;;;;;;11.21;100.00;100582.19;5037400;28;20063;-77
2024/01/26 02:08:05;;;;;;;0.00;0.00;;;;;;;11.25;100.00;100554.03;5045653;28;20076;-77
2024/01/26 02:10:30;;;;;;;0.00;0.00;;;;;;;11.25;100.00;100562.22;5040033;28;20429;-77
2024/01/26 02:12:56;;;;;;;0.00;0.00;;;;;;;11.22;100.00;100562.75;5040193;28;20512;-78
2024/01/26 02:15:21;;;;;;;0.00;0.00;;;;;;;11.22;100.00;100551.81;5052293;28;20088;-77
2024/01/26 02:17:47;;;;;;;0.00;0.00;;;;;;;11.29;100.00;100552.41;5044418;28;20024;-76
2024/01/26 02:20:12;;;;;;;0.00;0.00;;;;;;;11.26;100.00;100558.41;5037236;28;20119;-78
2024/01/26 02:22:38;;;;;;;0.00;0.00;;;;;;;11.16;100.00;100561.09;5035709;28;20701;-78
2024/01/26 02:25:04;;;;;;;0.00;0.00;;;;;;;11.20;100.00;100558.63;5051446;28;20033;-76
2024/01/26 02:27:34;;;;;;;0.00;0.00;;;;;;;11.16;100.00;100572.06;5054059;28;20116;-79
2024/01/26 02:29:59;;;;;;;0.00;0.00;;;;;;;11.15;100.00;100563.00;5055148;28;20013;-78
2024/01/26 02:32:25;;;;;;;0.00;0.00;;;;;;;11.05;100.00;100545.72;5079049;28;20028;-80
2024/01/26 02:34:50;;;;;;;0.00;0.00;;;;;;;10.97;100.00;100561.56;5044719;28;20028;-77
2024/01/26 02:37:16;;;;;;;0.00;0.00;;;;;;;10.94;100.00;100544.84;5034227;28;20025;-77
2024/01/26 02:39:41;;;;;;;0.00;0.00;;;;;;;10.88;100.00;100557.69;5071427;28;20024;-77
2024/01/26 02:42:07;;;;;;;0.00;0.00;;;;;;;10.81;100.00;100546.16;5068343;28;20041;-77
2024/01/26 02:44:33;;;;;;;0.00;0.00;;;;;;;10.79;100.00;100570.19;5040640;28;20041;-77
2024/01/26 02:47:02;;;;;;;0.00;0.00;;;;;;;10.76;100.00;100565.25;5050863;28;20040;-76
2024/01/26 02:49:29;;;;;;;0.10;0.10;;;;;;;10.83;100.00;100574.03;5067361;28;20131;-77
2024/01/26 02:51:54;;;;;;;0.00;0.00;;;;;;;10.86;100.00;100565.31;5059637;28;20008;-78
2024/01/26 02:54:20;;;;;;;0.00;0.00;;;;;;;10.83;100.00;100549.44;5056919;28;20037;-78
2024/01/26 02:56:45;;;;;;;0.00;0.00;;;;;;;10.98;100.00;100557.72;5065278;28;20041;-77
2024/01/26 02:59:11;;;;;;;0.00;0.00;;;;;;;10.95;100.00;100541.84;5050394;28;20037;-78
2024/01/26 03:01:36;;;;;;;0.10;0.10;;;;;;;11.12;100.00;100568.19;5045525;28;20166;-78
2024/01/26 03:04:02;;;;;;;0.00;0.00;;;;;;;11.14;100.00;100566.00;5068928;28;20036;-77
2024/01/26 03:06:27;;;;;;;0.00;0.00;;;;;;;11.10;100.00;100559.44;5049820;28;20039;-77
2024/01/26 03:08:53;;;;;;;0.10;0.10;;;;;;;11.06;100.00;100555.59;5080376;28;20025;-76
2024/01/26 03:11:18;;;;;;;0.00;0.00;;;;;;;10.97;100.00;100545.13;5038631;28;20059;-76
2024/01/26 03:13:44;;;;;;;0.00;0.00;;;;;;;11.04;100.00;100552.28;5054393;28;20036;-77
2024/01/26 03:16:10;;;;;;;0.00;0.00;;;;;;;11.13;100.00;100553.44;5055161;28;20037;-77
2024/01/26 03:18:36;;;;;;;0.00;0.00;;;;;;;11.22;100.00;100562.75;5084245;28;20082;-76
2024/01/26 03:21:01;;;;;;;0.00;0.00;;;;;;;11.20;100.00;100564.97;5041004;28;20020;-76
2024/01/26 03:23:27;;;;;;;0.00;0.00;;;;;;;11.27;100.00;100565.53;5053577;28;20048;-76
2024/01/26 03:25:52;;;;;;;0.00;0.00;;;;;;;11.29;100.00;100562.53;5076169;28;20028;-75
2024/01/26 03:28:18;;;;;;;0.00;0.00;;;;;;;11.23;100.00;100552.63;5037439;28;20044;-77
2024/01/26 03:30:44;;;;;;;0.00;0.00;;;;;;;11.27;100.00;100586.59;5047249;28;20029;-77
2024/01/26 03:33:09;;;;;;;0.00;0.00;;;;;;;11.29;100.00;100574.28;5065612;28;20029;-77
2024/01/26 03:35:35;;;;;;;0.00;0.00;;;;;;;11.30;100.00;100586.91;5041421;28;20046;-77
2024/01/26 03:38:01;;;;;;;0.00;0.00;;;;;;;11.25;100.00;100578.66;5073016;28;20454;-77
2024/01/26 03:40:29;;;;;;;0.00;0.00;;;;;;;11.26;100.00;100576.75;5068448;28;20028;-79
2024/01/26 03:42:55;;;;;;;0.00;0.00;;;;;;;11.28;100.00;100575.38;5069324;28;20008;-76
2024/01/26 03:45:20;;;;;;;0.00;0.00;;;;;;;11.24;100.00;100579.72;5056925;28;20043;-78
2024/01/26 03:47:46;;;;;;;0.00;0.00;;;;;;;11.33;100.00;100586.38;5054684;28;20526;-76
2024/01/26 03:50:12;;;;;;;0.00;0.00;;;;;;;11.30;100.00;100617.03;5067381;28;20076;-76
2024/01/26 03:52:37;;;;;;;0.00;0.00;;;;;;;11.26;100.00;100665.16;5070632;28;20043;-77
2024/01/26 03:55:06;;;;;;;0.00;0.00;;;;;;;10.94;100.00;100666.06;5053538;28;20031;-77
2024/01/26 03:57:34;;;;;;;0.00;0.00;;;;;;;10.40;100.00;100668.91;5058815;28;20032;-77
2024/01/26 04:00:06;;;;;;;0.00;0.00;;;;;;;9.82;100.00;100702.09;5055955;28;20020;-78
2024/01/26 04:02:31;;;;;;;0.00;0.00;;;;;;;9.40;100.00;100681.66;5069944;28;20055;-78
2024/01/26 04:05:04;;;;;;;0.00;0.00;;;;;;;9.29;100.00;100687.19;5057759;28;20032;-77
2024/01/26 04:07:29;;;;;;;0.00;0.00;;;;;;;9.30;100.00;100725.16;5030670;28;20032;-77
2024/01/26 04:09:55;;;;;;;0.00;0.00;;;;;;;9.21;100.00;100745.75;5052819;28;20115;-76
2024/01/26 04:12:20;;;;;;;0.00;0.00;;;;;;;9.09;100.00;100767.66;5066472;28;20031;-77
2024/01/26 04:14:46;;;;;;;0.00;0.00;;;;;;;8.75;100.00;100773.09;5065008;28;20051;-78
2024/01/26 04:17:11;;;;;;;0.00;0.00;;;;;;;8.09;100.00;100756.25;5061338;28;20074;-77
2024/01/26 04:19:37;;;;;;;0.00;0.00;;;;;;;7.81;100.00;100752.41;5038418;28;20082;-77
2024/01/26 04:22:06;;;;;;;0.00;0.00;;;;;;;7.47;100.00;100730.44;5057477;28;20056;-76
2024/01/26 04:24:33;;;;;;;0.00;0.00;;;;;;;7.41;100.00;100769.50;5047256;28;20031;-76
2024/01/26 04:27:00;;;;;;;0.00;0.00;;;;;;;7.52;100.00;100798.63;5059247;28;20013;-78
2024/01/26 04:29:26;;;;;;;0.00;0.00;;;;;;;7.47;100.00;100779.44;5068169;28;20032;-76
2024/01/26 04:31:52;;;;;;;0.10;0.10;;;;;;;7.41;100.00;100780.38;5021502;28;20021;-77
2024/01/26 04:34:17;;;;;;;0.00;0.00;;;;;;;7.46;100.00;100803.09;5056787;28;20025;-77
2024/01/26 04:36:47;;;;;;;0.10;0.10;;;;;;;7.47;100.00;100802.03;5023601;28;20036;-75
2024/01/26 04:39:14;;;;;;;0.10;0.10;;;;;;;7.48;100.00;100781.91;5043117;28;20033;-76
2024/01/26 04:41:43;;;;;;;0.00;0.00;;;;;;;7.63;100.00;100796.94;5062561;28;20075;-77
2024/01/26 04:44:09;;;;;;;0.00;0.00;;;;;;;7.48;100.00;100773.75;5052325;28;20570;-78
2024/01/26 04:46:36;;;;;;;0.00;0.00;;;;;;;7.46;100.00;100810.41;5054854;28;20020;-78
2024/01/26 04:49:02;;;;;;;0.00;0.00;;;;;;;7.48;100.00;100813.75;5033080;28;20156;-78
2024/01/26 04:51:27;;;;;;;0.00;0.00;;;;;;;7.40;100.00;100833.97;5070738;28;20012;-77
2024/01/26 04:53:53;;;;;;;0.00;0.00;;;;;;;7.47;100.00;100845.56;5058837;28;20032;-77
2024/01/26 04:56:20;;;;;;;0.00;0.00;;;;;;;7.46;100.00;100843.06;5072798;28;20024;-76
2024/01/26 04:58:48;;;;;;;0.00;0.00;;;;;;;7.41;100.00;100835.63;5021949;28;20612;-78
2024/01/26 05:01:13;;;;;;;0.00;0.00;;;;;;;7.59;100.00;100872.78;5034658;28;20028;-78
2024/01/26 05:03:39;;;;;;;0.00;0.00;;;;;;;7.45;100.00;100907.56;5072604;28;20116;-78
2024/01/26 05:06:06;;;;;;;0.00;0.00;;;;;;;7.47;100.00;100905.44;5073976;28;20107;-77
2024/01/26 05:08:31;;;;;;;0.00;0.00;;;;;;;7.44;100.00;100905.91;5065530;28;20029;-77
2024/01/26 05:10:57;;;;;;;0.00;0.00;;;;;;;7.38;100.00;100901.41;5061299;28;20039;-76
2024/01/26 05:13:22;;;;;;;0.00;0.00;;;;;;;7.46;100.00;100913.81;5034732;28;20047;-76
2024/01/26 05:15:48;;;;;;;0.00;0.00;;;;;;;7.41;100.00;100898.22;5039123;28;20386;-75
2024/01/26 05:18:13;;;;;;;0.00;0.00;;;;;;;7.39;100.00;100941.16;5014022;28;20036;-77
2024/01/26 05:20:39;;;;;;;0.00;0.00;;;;;;;7.23;100.00;100911.88;5044011;28;20059;-77
2024/01/26 05:23:06;;;;;;;0.10;0.10;;;;;;;7.35;100.00;100929.06;5025747;28;20108;-77
2024/01/26 05:25:32;;;;;;;0.00;0.00;;;;;;;7.24;100.00;100924.41;5072848;28;20044;-76
2024/01/26 05:27:58;;;;;;;0.00;0.00;;;;;;;6.91;100.00;100923.00;5023321;28;20082;-76
2024/01/26 05:30:23;;;;;;;0.00;0.00;;;;;;;6.80;100.00;100928.16;5078353;28;20032;-76
2024/01/26 05:32:48;;;;;;;0.00;0.00;;;;;;;6.79;100.00;100994.44;5055697;28;20151;-75
2024/01/26 05:35:16;;;;;;;0.00;0.00;;;;;;;6.62;100.00;100979.81;5032425;28;20029;-75
2024/01/26 05:37:42;;;;;;;0.00;0.00;;;;;;;6.59;100.00;100985.69;5030216;28;20463;-75
2024/01/26 05:40:08;;;;;;;0.10;0.10;;;;;;;6.52;100.00;100993.06;5021611;28;20033;-76
2024/01/26 05:42:59;;;;;;;;;;;;;;;;;;;;;
2024/01/26 05:58:34;;;;;;;0.00;0.00;;;;;;;6.04;100.00;101044.25;5169398;23;20061;-75
2024/01/26 06:00:59;;;;;;;0.10;0.10;;;;;;;5.98;100.00;101053.28;5001377;28;20440;-76
2024/01/26 06:03:24;;;;;;;0.00;0.00;;;;;;;6.02;100.00;101051.81;5030569;28;20029;-76
2024/01/26 06:05:50;;;;;;;0.10;0.10;;;;;;;5.93;100.00;101069.41;5006361;28;20463;-75
2024/01/26 06:08:15;;;;;;;0.10;0.10;;;;;;;5.81;100.00;101065.69;5010011;28;20031;-75
2024/01/26 06:10:43;;;;;;;0.10;0.10;;;;;;;5.76;100.00;101080.75;5003009;28;20029;-77
2024/01/26 06:13:09;;;;;;;0.00;0.00;;;;;;;5.66;100.00;101090.44;5037221;28;20025;-76
2024/01/26 06:15:36;;;;;;;0.00;0.00;;;;;;;5.63;100.00;101096.28;5001913;28;20032;-76
2024/01/26 06:18:02;;;;;;;0.10;0.10;;;;;;;5.48;100.00;101083.00;4992703;28;20393;-76
2024/01/26 06:20:31;;;;;;;0.10;0.10;;;;;;;5.54;100.00;101130.97;4999915;28;20124;-76
2024/01/26 06:22:57;;;;;;;0.10;0.10;;;;;;;5.36;100.00;101118.94;5034929;28;20067;-76
2024/01/26 06:25:22;;;;;;;0.10;0.10;;;;;;;5.32;100.00;101133.97;4992626;28;20037;-75
2024/01/26 06:27:48;;;;;;;0.00;0.00;;;;;;;5.39;100.00;101166.50;5007584;28;20075;-75
2024/01/26 06:30:14;;;;;;;0.10;0.10;;;;;;;5.37;100.00;101169.44;5048833;28;20039;-76
2024/01/26 06:32:42;;;;;;;0.00;0.00;;;;;;;5.40;100.00;101179.00;5028636;28;20025;-76
2024/01/26 06:35:08;;;;;;;0.10;0.10;;;;;;;5.35;100.00;101206.78;5031332;28;20033;-75
2024/01/26 06:37:34;;;;;;;0.00;0.00;;;;;;;5.25;100.00;101187.41;5037273;28;20059;-76
2024/01/26 06:39:59;;;;;;;0.00;0.00;;;;;;;5.05;100.00;101168.44;5030640;28;20475;-76
2024/01/26 06:42:29;;;;;;;0.00;0.00;;;;;;;5.19;100.00;101227.03;5008807;28;20044;-75
2024/01/26 06:44:55;;;;;;;0.10;0.10;;;;;;;5.09;100.00;101231.22;5030696;28;20039;-75
2024/01/26 06:47:20;;;;;;;0.00;0.00;;;;;;;5.09;100.00;101225.81;5032805;28;20033;-75
2024/01/26 06:49:53;;;;;;;0.10;0.10;;;;;;;4.90;100.00;101203.91;5042718;28;20029;-74
2024/01/26 06:52:19;;;;;;;0.10;0.10;;;;;;;4.90;100.00;101221.00;5021524;28;20040;-77
2024/01/26 06:54:44;;;;;;;0.00;0.00;;;;;;;4.82;100.00;101229.34;5015200;28;20387;-75
2024/01/26 06:57:12;;;;;;;0.10;0.10;;;;;;;4.86;100.00;101251.44;5023927;28;20049;-75
2024/01/26 06:59:38;;;;;;;0.10;0.10;;;;;;;4.90;100.00;101279.81;5019691;28;20068;-75
2024/01/26 07:02:04;;;;;;;0.00;0.00;;;;;;;4.72;100.00;101254.16;5047805;28;20091;-78
2024/01/26 07:04:30;;;;;;;0.00;0.00;;;;;;;4.76;100.00;101264.56;5016171;28;20561;-75
2024/01/26 07:06:55;;;;;;;0.00;0.00;;;;;;;4.70;100.00;101267.09;5013095;28;20073;-77
2024/01/26 07:09:21;;;;;;;0.10;0.10;;;;;;;4.66;100.00;101282.06;5013304;28;20033;-75
2024/01/26 07:11:48;;;;;;;0.00;0.00;;;;;;;4.70;100.00;101291.47;5043366;28;20016;-76
2024/01/26 07:14:16;;;;;;;0.00;0.00;;;;;;;4.48;100.00;101268.28;5010491;28;20037;-75
2024/01/26 07:16:42;;;;;;;0.10;0.10;;;;;;;4.63;100.00;101295.19;5019778;28;20390;-77
2024/01/26 07:19:07;;;;;;;0.10;0.10;;;;;;;4.54;100.00;101305.38;5006937;28;20033;-77
2024/01/26 07:21:32;;;;;;;0.10;0.10;;;;;;;4.57;100.00;101323.94;5031821;28;20095;-79
2024/01/26 07:23:58;;;;;;;0.00;0.00;;;;;;;4.44;100.00;101316.63;4997430;28;20037;-78
2024/01/26 07:26:24;;;;;;;0.00;0.00;;;;;;;4.51;100.00;101349.13;5056071;28;20032;-76
2024/01/26 07:28:52;;;;;;;0.10;0.10;;;;;;;4.42;100.00;101344.94;5026515;28;20372;-76
2024/01/26 07:31:17;;;;;;;0.10;0.10;;;;;;;4.39;100.00;101348.88;5034662;28;20017;-76
2024/01/26 07:33:43;;;;;;;0.00;0.00;;;;;;;4.28;100.00;101347.59;5030835;28;20036;-78
2024/01/26 07:36:08;;;;;;;0.00;0.00;;;;;;;4.21;100.00;101332.38;5015492;28;20037;-77
2024/01/26 07:38:34;;;;;;;0.10;0.10;;;;;;;4.29;100.00;101370.09;5035696;28;20025;-76
2024/01/26 07:40:59;;;;;;;0.10;0.10;;;;;;;4.23;100.00;101366.31;5030351;28;20433;-76
2024/01/26 07:43:25;;;;;;;0.10;0.10;;;;;;;4.25;100.00;101394.03;5038566;28;20021;-76
2024/01/26 07:45:53;;;;;;;0.10;0.10;;;;;;;4.02;100.00;101368.06;5012626;28;20659;-77
2024/01/26 07:48:19;;;;;;;0.10;0.10;;;;;;;4.11;100.00;101384.16;5027548;28;20526;-77
2024/01/26 07:50:45;;;;;;;0.10;0.10;;;;;;;4.14;100.00;101395.41;5043407;28;20047;-78
2024/01/26 07:53:15;;;;;;;0.00;0.00;;;;;;;4.10;100.00;101394.13;5038726;28;20068;-77
2024/01/26 07:55:41;;;;;;;0.08;0.08;;;;;;;4.18;100.00;101425.66;5018625;28;20037;-76
2024/01/26 07:58:06;;;;;;;0.10;0.10;;;;;;;4.24;100.00;101445.69;5033242;28;20148;-76
2024/01/26 08:00:32;;;;;;;0.10;0.10;;;;;;;4.23;100.00;101444.81;5026391;28;20068;-76
2024/01/26 08:03:00;;;;;;;0.10;0.10;;;;;;;4.23;100.00;101444.00;5002147;28;20025;-78
2024/01/26 08:05:26;;;;;;;0.00;0.00;;;;;;;4.19;100.00;101448.97;5050988;28;20031;-77
2024/01/26 08:07:51;;;;;;;0.00;0.00;;;;;;;4.24;100.00;101456.50;5003592;28;20029;-76
2024/01/26 08:10:17;;;;;;;0.10;0.10;;;;;;;4.25;100.00;101464.44;5030144;28;20029;-75
2024/01/26 08:12:42;;;;;;;0.00;0.00;;;;;;;4.16;100.00;101465.59;5029679;28;20021;-75
2024/01/26 08:15:08;;;;;;;0.00;0.00;;;;;;;4.25;100.00;101480.69;5011790;28;20055;-75
2024/01/26 08:17:34;;;;;;;0.10;0.10;;;;;;;4.26;100.00;101485.03;5030818;28;20132;-75
2024/01/26 08:20:02;;;;;;;0.00;0.00;;;;;;;4.21;100.00;101479.41;5030935;28;20025;-76
2024/01/26 08:22:27;;;;;;;0.10;0.10;;;;;;;4.27;100.00;101494.84;5028421;28;20671;-76
2024/01/26 08:24:53;;;;;;;0.00;0.00;;;;;;;4.34;100.00;101511.16;5018453;28;20032;-76
2024/01/26 08:27:18;;;;;;;0.00;0.00;;;;;;;4.34;100.00;101500.31;5021533;28;20535;-76
2024/01/26 08:29:44;;;;;;;0.00;0.00;;;;;;;4.34;100.00;101503.84;5018840;28;20024;-76
2024/01/26 08:32:09;;;;;;;0.10;0.10;;;;;;;4.40;100.00;101514.94;5032098;28;20029;-78
2024/01/26 08:34:37;;;;;;;0.03;0.03;;;;;;;4.43;100.00;101530.78;5029108;28;20396;-78
2024/01/26 08:37:03;;;;;;;0.10;0.10;;;;;;;4.46;100.00;101530.38;5008822;28;20056;-77
2024/01/26 08:39:29;;;;;;;0.10;0.10;;;;;;;4.52;100.00;101545.84;5031241;28;20036;-77
2024/01/26 08:41:55;;;;;;;0.00;0.00;;;;;;;4.56;100.00;101560.66;5037661;28;20077;-77
2024/01/26 08:44:21;;;;;;;0.00;0.00;;;;;;;4.60;100.00;101561.09;5021194;28;20056;-77
2024/01/26 08:46:46;;;;;;;0.00;0.00;;;;;;;4.58;100.00;101561.28;5010467;28;20120;-77
2024/01/26 08:49:12;;;;;;;0.00;0.00;;;;;;;4.62;100.00;101567.19;5006856;28;20041;-78
2024/01/26 08:51:40;;;;;;;0.00;0.00;;;;;;;4.68;100.00;101572.63;5045991;28;20025;-77
2024/01/26 08:54:07;;;;;;;0.00;0.00;;;;;;;4.78;100.00;101587.69;5006469;28;20040;-78
2024/01/26 08:56:39;;;;;;;0.10;0.10;;;;;;;4.77;100.00;101591.44;5029018;28;20037;-76
2024/01/26 08:59:06;;;;;;;0.00;0.00;;;;;;;4.90;100.00;101586.91;5042018;28;20390;-78
2024/01/26 09:01:36;;;;;;;0.00;0.00;;;;;;;4.86;100.00;101584.81;5036415;28;20025;-78
2024/01/26 09:04:05;;;;;;;0.10;0.10;;;;;;;4.89;100.00;101579.84;5048397;28;20039;-76
2024/01/26 09:06:30;;;;;;;0.00;0.00;;;;;;;4.90;100.00;101586.09;5035032;28;20029;-78
2024/01/26 09:08:56;;;;;;;0.10;0.10;;;;;;;4.99;100.00;101590.31;5055320;28;20025;-78
2024/01/26 09:11:21;;;;;;;0.00;0.00;;;;;;;5.06;100.00;101602.03;5024064;28;20075;-77
2024/01/26 09:13:47;;;;;;;0.10;0.10;;;;;;;5.14;100.00;101602.91;5017166;28;20028;-76
2024/01/26 09:16:12;;;;;;;0.10;0.10;;;;;;;5.24;100.00;101608.78;4992716;28;20033;-77
2024/01/26 09:18:41;;;;;;;0.00;0.00;;;;;;;5.28;100.00;101615.50;5033839;28;20037;-77
2024/01/26 09:21:12;;;;;;;0.00;0.00;;;;;;;5.44;100.00;101608.88;5012728;28;20029;-76
2024/01/26 09:23:38;;;;;;;0.10;0.10;;;;;;;6.75;100.00;101621.19;5030043;28;20028;-76
2024/01/26 09:26:04;;;;;;;0.10;0.10;;;;;;;9.38;100.00;101636.47;5039653;28;20064;-76
2024/01/26 09:28:29;;;;;;;0.00;0.00;;;;;;;11.07;87.49;101616.41;5037580;28;20033;-77
2024/01/26 09:30:55;;;;;;;0.10;0.10;;;;;;;12.39;82.85;101653.00;5021006;28;20872;-75
2024/01/26 09:33:21;;;;;;;0.00;0.00;;;;;;;13.58;75.17;101666.59;5020837;28;20029;-76
2024/01/26 09:35:47;;;;;;;0.00;0.00;;;;;;;14.26;69.69;101670.88;5023249;28;20432;-77
2024/01/26 09:38:12;;;;;;;0.10;0.10;;;;;;;15.18;65.60;101688.16;5046229;28;20029;-77
2024/01/26 09:40:39;;;;;;;0.10;0.10;;;;;;;15.30;61.44;101685.22;5024488;28;20078;-76
2024/01/26 09:43:06;;;;;;;0.00;0.00;;;;;;;15.78;61.79;101690.66;5041909;28;20118;-76
2024/01/26 09:45:32;;;;;;;0.00;0.00;;;;;;;15.71;59.83;101682.63;5033217;28;20014;-76
2024/01/26 09:47:58;;;;;;;0.00;0.00;;;;;;;15.97;58.36;101677.22;5016713;28;20116;-76
2024/01/26 09:50:26;;;;;;;0.00;0.00;;;;;;;16.15;58.11;101670.38;5038073;28;20024;-77
2024/01/26 09:52:55;;;;;;;0.00;0.00;;;;;;;16.39;54.87;101675.34;5040712;28;20594;-77
2024/01/26 09:55:21;;;;;;;0.00;0.00;;;;;;;16.23;54.23;101672.56;5015431;28;20510;-78
2024/01/26 09:57:47;;;;;;;0.00;0.00;;;;;;;16.34;51.89;101680.88;5019843;28;20045;-77
2024/01/26 10:00:14;;;;;;;0.00;0.00;;;;;;;16.58;51.29;101693.03;5028136;28;20037;-79
2024/01/26 10:02:42;;;;;;;0.00;0.00;;;;;;;16.62;50.59;101692.47;5039153;28;20022;-76
2024/01/26 10:05:08;;;;;;;0.00;0.00;;;;;;;17.01;49.67;101716.81;5035745;28;20029;-79
2024/01/26 10:07:33;;;;;;;0.00;0.00;;;;;;;17.38;49.61;101712.88;5021013;28;20032;-77
2024/01/26 10:09:59;;;;;;;0.00;0.00;;;;;;;17.88;48.16;101708.25;5014518;28;20034;-76
2024/01/26 10:13:11;;;;;;;0.00;0.00;;;;;;;18.51;48.05;101711.50;5034489;28;20022;-77
2024/01/26 10:16:10;;;;;;;0.00;0.00;;;;;;;19.70;44.74;101776.66;5013724;28;20041;-77
2024/01/26 10:22:04;;;;;;;0.00;0.00;;;;;;;20.04;45.92;101759.06;5005960;28;20034;-77
2024/01/26 10:24:51;;;;;;;0.00;0.00;;;;;;;21.86;42.51;101780.81;5036474;28;20037;-77
2024/01/26 10:27:17;;;;;;;0.00;0.00;;;;;;;22.62;43.00;101819.31;5034017;28;20021;-77
2024/01/26 10:29:44;;;;;;;0.00;0.00;;;;;;;22.90;39.72;101823.97;5033728;28;20031;-77
2024/01/26 10:32:16;;;;;;;0.00;0.00;;;;;;;22.52;40.24;101786.09;5021251;28;20033;-77
2024/01/26 10:35:04;;;;;;;0.00;0.00;;;;;;;23.26;41.57;101814.72;5030623;28;20021;-77
2024/01/26 10:40:57;;;;;;;0.00;0.00;;;;;;;23.67;37.81;101796.84;5033123;28;20029;-77
2024/01/26 10:43:27;;;;;;;0.00;0.00;;;;;;;23.56;39.54;101817.84;5046176;28;20047;-77
2024/01/26 10:46:02;;;;;;;0.00;0.00;;;;;;;23.99;40.13;101836.78;5026686;28;20029;-79
2024/01/26 10:48:28;;;;;;;0.00;0.00;;;;;;;24.30;38.38;101807.91;5035332;28;20033;-78
2024/01/26 10:51:25;;;;;;;0.00;0.00;;;;;;;24.84;36.22;101814.06;5026014;28;20040;-78
2024/01/26 10:54:05;;;;;;;;;;;;;;;;;;;;;
2024/01/26 10:56:42;;;;;;;;;;;;;;;;;;;;;
2024/01/26 10:59:22;;;;;;;0.00;0.00;;;;;;;24.17;36.12;101849.66;5047834;28;20124;-78
2024/01/26 11:02:29;;;;;;;0.00;0.00;;;;;;;24.16;35.38;101825.66;5027216;28;20021;-77
2024/01/26 11:05:09;;;;;;;0.00;0.00;;;;;;;25.41;35.63;101834.59;5017859;28;20046;-76
2024/01/26 11:10:27;;;;;;;0.00;0.00;;;;;;;25.46;31.78;101848.41;5039100;28;20037;-78
2024/01/26 11:13:44;;;;;;;0.00;0.00;;;;;;;25.37;31.36;101865.22;5043228;28;20439;-78
2024/01/26 11:16:46;;;;;;;0.00;0.00;;;;;;;24.48;31.46;101870.28;5028091;28;20060;-79
2024/01/26 11:19:22;;;;;;;0.00;0.00;;;;;;;25.29;33.48;101859.63;5034116;28;20086;-78
2024/01/26 11:22:14;;;;;;;0.00;0.00;;;;;;;26.19;33.61;101858.69;5027130;28;20010;-78
2024/01/26 11:25:01;;;;;;;0.00;0.00;;;;;;;26.24;30.79;101900.56;5041631;28;20026;-79
2024/01/26 11:27:27;;;;;;;0.00;0.00;;;;;;;26.05;30.62;101864.53;5035499;28;20033;-78
2024/01/26 11:29:56;;;;;;;0.00;0.00;;;;;;;24.98;29.98;101871.84;5037915;28;20032;-79
2024/01/26 11:32:23;;;;;;;0.00;0.00;;;;;;;24.30;30.27;101888.97;5036771;28;20025;-77
2024/01/26 11:35:06;;;;;;;0.00;0.00;;;;;;;22.84;31.99;101865.09;5020375;28;20120;-80
2024/01/26 11:37:40;;;;;;;0.00;0.00;;;;;;;23.33;31.46;101904.41;5041548;28;20032;-79
2024/01/26 11:40:09;;;;;;;0.00;0.00;;;;;;;23.18;31.08;101875.72;5050233;28;20033;-79
2024/01/26 11:43:16;;;;;;;0.00;0.00;;;;;;;23.75;30.86;101899.41;5051932;28;20116;-79
2024/01/26 11:45:44;;;;;;;0.00;0.00;;;;;;;23.69;31.71;101900.69;5022223;28;20033;-80
2024/01/26 11:48:27;;;;;;;0.00;0.00;;;;;;;24.11;30.26;101862.13;5038619;28;20025;-79
2024/01/26 11:50:53;;;;;;;0.00;0.00;;;;;;;25.10;28.86;101885.97;5036650;28;20025;-79
2024/01/26 11:53:23;;;;;;;0.00;0.00;;;;;;;26.60;27.66;101918.78;5016725;28;20025;-79
2024/01/26 11:56:02;;;;;;;0.00;0.00;;;;;;;26.60;28.08;101882.34;5034812;28;20203;-80
2024/01/26 11:58:33;;;;;;;0.00;0.00;;;;;;;26.50;26.76;101891.16;5024617;28;20053;-79